sensor_id;sensor_type;location;lat;lon;timestamp;pressure;altitude;pressure_sealevel;temperature;humidity
29909;BME280;36247;51.952;6.146;2022-07-15T00:00:18;102099.22;;;14.33;98.52
29909;BME280;36247;51.952;6.146;2022-07-15T00:02:44;102102.59;;;14.24;99.03
29909;BME280;36247;51.952;6.146;2022-07-15T00:05:09;102095.47;;;14.21;99.42
29909;BME280;36247;51.952;6.146;2022-07-15T00:07:35;102100.66;;;14.15;99.69
29909;BME280;36247;51.952;6.146;2022-07-15T00:10:02;102094.38;;;14.11;99.62
29909;BME280;36247;51.952;6.146;2022-07-15T00:12:44;102104.94;;;14.05;99.95
29909;BME280;36247;51.952;6.146;2022-07-15T00:15:10;102104.72;;;13.95;100.00
29909;BME280;36247;51.952;6.146;2022-07-15T00:17:36;102107.38;;;13.95;100.00
29909;BME280;36247;51.952;6.146;2022-07-15T00:20:02;102103.78;;;13.92;100.00
29909;BME280;36247;51.952;6.146;2022-07-15T00:22:28;102109.31;;;14.02;100.00
29909;BME280;36247;51.952;6.146;2022-07-15T00:24:53;102104.84;;;14.01;100.00
29909;BME280;36247;51.952;6.146;2022-07-15T00:27:19;102101.16;;;13.96;100.00
29909;BME280;36247;51.952;6.146;2022-07-15T00:29:45;102097.94;;;14.12;100.00
29909;BME280;36247;51.952;6.146;2022-07-15T00:32:10;102102.22;;;14.02;100.00
29909;BME280;36247;51.952;6.146;2022-07-15T00:34:36;102105.00;;;14.08;100.00
29909;BME280;36247;51.952;6.146;2022-07-15T00:37:02;102105.88;;;14.09;100.00
29909;BME280;36247;51.952;6.146;2022-07-15T00:39:27;102106.56;;;13.99;100.00
29909;BME280;36247;51.952;6.146;2022-07-15T00:41:53;102109.19;;;13.97;100.00
29909;BME280;36247;51.952;6.146;2022-07-15T00:44:19;102105.50;;;13.89;100.00
29909;BME280;36247;51.952;6.146;2022-07-15T00:46:44;102101.56;;;13.71;100.00
29909;BME280;36247;51.952;6.146;2022-07-15T00:49:10;102099.81;;;13.72;100.00
29909;BME280;36247;51.952;6.146;2022-07-15T00:51:42;102103.31;;;13.69;100.00
29909;BME280;36247;51.952;6.146;2022-07-15T00:54:11;102106.56;;;13.56;100.00
29909;BME280;36247;51.952;6.146;2022-07-15T00:56:46;102106.84;;;13.68;100.00
29909;BME280;36247;51.952;6.146;2022-07-15T00:59:12;102105.88;;;13.65;100.00
29909;BME280;36247;51.952;6.146;2022-07-15T01:01:40;102098.84;;;13.68;100.00
29909;BME280;36247;51.952;6.146;2022-07-15T01:04:09;102100.28;;;13.52;100.00
29909;BME280;36247;51.952;6.146;2022-07-15T01:06:35;102103.03;;;13.55;100.00
29909;BME280;36247;51.952;6.146;2022-07-15T01:09:00;102100.81;;;13.37;100.00
29909;BME280;36247;51.952;6.146;2022-07-15T01:11:28;102098.94;;;13.33;100.00
29909;BME280;36247;51.952;6.146;2022-07-15T01:13:58;102102.69;;;13.42;100.00
29909;BME280;36247;51.952;6.146;2022-07-15T01:16:25;102104.56;;;13.46;100.00
29909;BME280;36247;51.952;6.146;2022-07-15T01:18:52;102095.06;;;13.57;100.00
29909;BME280;36247;51.952;6.146;2022-07-15T01:21:18;102095.78;;;13.48;100.00
29909;BME280;36247;51.952;6.146;2022-07-15T01:23:45;102097.28;;;13.37;100.00
29909;BME280;36247;51.952;6.146;2022-07-15T01:26:31;102099.69;;;13.28;100.00
29909;BME280;36247;51.952;6.146;2022-07-15T01:28:57;102093.47;;;13.26;100.00
29909;BME280;36247;51.952;6.146;2022-07-15T01:31:24;102109.91;;;13.09;100.00
29909;BME280;36247;51.952;6.146;2022-07-15T01:33:49;102106.22;;;13.02;100.00
29909;BME280;36247;51.952;6.146;2022-07-15T01:36:15;102104.22;;;12.94;100.00
29909;BME280;36247;51.952;6.146;2022-07-15T01:38:47;102107.72;;;12.93;100.00
29909;BME280;36247;51.952;6.146;2022-07-15T01:41:13;102105.09;;;12.94;100.00
29909;BME280;36247;51.952;6.146;2022-07-15T01:43:38;102111.13;;;12.85;100.00
29909;BME280;36247;51.952;6.146;2022-07-15T01:46:04;102110.84;;;12.75;100.00
29909;BME280;36247;51.952;6.146;2022-07-15T01:48:36;102115.69;;;12.91;100.00
29909;BME280;36247;51.952;6.146;2022-07-15T01:51:38;102100.19;;;13.10;100.00
29909;BME280;36247;51.952;6.146;2022-07-15T01:54:04;102100.22;;;13.11;100.00
29909;BME280;36247;51.952;6.146;2022-07-15T01:56:29;102113.41;;;13.07;100.00
29909;BME280;36247;51.952;6.146;2022-07-15T01:58:55;102109.78;;;13.04;100.00
29909;BME280;36247;51.952;6.146;2022-07-15T02:01:20;102109.88;;;13.08;100.00
29909;BME280;36247;51.952;6.146;2022-07-15T02:03:47;102109.28;;;13.21;100.00
29909;BME280;36247;51.952;6.146;2022-07-15T02:06:12;102103.31;;;13.31;100.00
29909;BME280;36247;51.952;6.146;2022-07-15T02:08:37;102104.72;;;13.52;100.00
29909;BME280;36247;51.952;6.146;2022-07-15T02:11:09;102106.88;;;13.30;100.00
29909;BME280;36247;51.952;6.146;2022-07-15T02:13:34;102097.94;;;13.28;100.00
29909;BME280;36247;51.952;6.146;2022-07-15T02:15:59;102109.69;;;13.36;100.00
29909;BME280;36247;51.952;6.146;2022-07-15T02:18:26;102114.59;;;13.57;100.00
29909;BME280;36247;51.952;6.146;2022-07-15T02:20:52;102114.66;;;13.61;100.00
29909;BME280;36247;51.952;6.146;2022-07-15T02:23:18;102108.41;;;13.58;100.00
29909;BME280;36247;51.952;6.146;2022-07-15T02:25:44;102104.91;;;13.61;100.00
29909;BME280;36247;51.952;6.146;2022-07-15T02:28:09;102108.53;;;13.65;100.00
29909;BME280;36247;51.952;6.146;2022-07-15T02:30:38;102111.91;;;13.56;100.00
29909;BME280;36247;51.952;6.146;2022-07-15T02:33:05;102109.03;;;13.47;100.00
29909;BME280;36247;51.952;6.146;2022-07-15T02:35:32;102118.91;;;13.52;100.00
29909;BME280;36247;51.952;6.146;2022-07-15T02:37:58;102109.00;;;13.45;100.00
29909;BME280;36247;51.952;6.146;2022-07-15T02:40:26;102109.00;;;13.45;100.00
29909;BME280;36247;51.952;6.146;2022-07-15T02:42:55;102111.81;;;13.51;100.00
29909;BME280;36247;51.952;6.146;2022-07-15T02:45:23;102107.34;;;13.50;100.00
29909;BME280;36247;51.952;6.146;2022-07-15T02:47:49;102112.09;;;13.65;100.00
29909;BME280;36247;51.952;6.146;2022-07-15T02:50:23;102112.00;;;13.61;100.00
29909;BME280;36247;51.952;6.146;2022-07-15T02:52:49;102118.13;;;13.56;100.00
29909;BME280;36247;51.952;6.146;2022-07-15T02:55:15;102122.56;;;13.56;100.00
29909;BME280;36247;51.952;6.146;2022-07-15T02:57:42;102120.78;;;13.56;100.00
29909;BME280;36247;51.952;6.146;2022-07-15T03:00:09;102115.56;;;13.61;100.00
29909;BME280;36247;51.952;6.146;2022-07-15T03:02:37;102120.09;;;13.65;100.00
29909;BME280;36247;51.952;6.146;2022-07-15T03:05:07;102118.25;;;13.63;100.00
29909;BME280;36247;51.952;6.146;2022-07-15T03:07:33;102118.38;;;13.69;100.00
29909;BME280;36247;51.952;6.146;2022-07-15T03:09:59;102121.03;;;13.69;100.00
29909;BME280;36247;51.952;6.146;2022-07-15T03:12:25;102123.09;;;13.82;100.00
29909;BME280;36247;51.952;6.146;2022-07-15T03:14:53;102126.09;;;13.98;100.00
29909;BME280;36247;51.952;6.146;2022-07-15T03:17:19;102128.88;;;14.04;100.00
29909;BME280;36247;51.952;6.146;2022-07-15T03:19:44;102127.22;;;14.10;100.00
29909;BME280;36247;51.952;6.146;2022-07-15T03:22:10;102129.91;;;14.12;100.00
29909;BME280;36247;51.952;6.146;2022-07-15T03:24:36;102137.97;;;14.15;100.00
29909;BME280;36247;51.952;6.146;2022-07-15T03:27:02;102144.34;;;14.22;100.00
29909;BME280;36247;51.952;6.146;2022-07-15T03:29:29;102137.22;;;14.22;100.00
29909;BME280;36247;51.952;6.146;2022-07-15T03:31:56;102139.69;;;14.11;100.00
29909;BME280;36247;51.952;6.146;2022-07-15T03:34:24;102139.84;;;14.19;100.00
29909;BME280;36247;51.952;6.146;2022-07-15T03:36:50;102144.47;;;14.29;100.00
29909;BME280;36247;51.952;6.146;2022-07-15T03:39:17;102144.56;;;14.34;100.00
29909;BME280;36247;51.952;6.146;2022-07-15T03:41:43;102146.28;;;14.31;100.00
29909;BME280;36247;51.952;6.146;2022-07-15T03:44:10;102141.91;;;14.34;100.00
29909;BME280;36247;51.952;6.146;2022-07-15T03:46:36;102141.28;;;14.49;100.00
29909;BME280;36247;51.952;6.146;2022-07-15T03:49:02;102148.28;;;14.42;100.00
29909;BME280;36247;51.952;6.146;2022-07-15T03:51:31;102145.63;;;14.42;100.00
29909;BME280;36247;51.952;6.146;2022-07-15T03:54:01;102144.69;;;14.40;100.00
29909;BME280;36247;51.952;6.146;2022-07-15T03:56:27;102150.16;;;14.46;100.00
29909;BME280;36247;51.952;6.146;2022-07-15T03:58:54;102152.72;;;14.42;100.00
29909;BME280;36247;51.952;6.146;2022-07-15T04:01:19;102156.81;;;14.23;100.00
29909;BME280;36247;51.952;6.146;2022-07-15T04:03:47;102158.91;;;14.39;100.00
29909;BME280;36247;51.952;6.146;2022-07-15T04:06:17;102164.91;;;14.29;100.00
29909;BME280;36247;51.952;6.146;2022-07-15T04:08:44;102167.56;;;14.27;100.00
29909;BME280;36247;51.952;6.146;2022-07-15T04:11:11;102161.31;;;14.27;100.00
29909;BME280;36247;51.952;6.146;2022-07-15T04:13:37;102165.31;;;14.51;100.00
29909;BME280;36247;51.952;6.146;2022-07-15T04:16:03;102169.66;;;14.44;100.00
29909;BME280;36247;51.952;6.146;2022-07-15T04:18:29;102172.47;;;14.52;100.00
29909;BME280;36247;51.952;6.146;2022-07-15T04:20:54;102173.97;;;14.39;100.00
29909;BME280;36247;51.952;6.146;2022-07-15T04:23:19;102173.19;;;14.43;100.00
29909;BME280;36247;51.952;6.146;2022-07-15T04:25:45;102174.22;;;14.50;100.00
29909;BME280;36247;51.952;6.146;2022-07-15T04:28:12;102180.44;;;14.50;100.00
29909;BME280;36247;51.952;6.146;2022-07-15T04:30:39;102172.56;;;14.58;100.00
29909;BME280;36247;51.952;6.146;2022-07-15T04:33:05;102169.03;;;14.59;100.00
29909;BME280;36247;51.952;6.146;2022-07-15T04:35:32;102171.78;;;14.62;100.00
29909;BME280;36247;51.952;6.146;2022-07-15T04:38:02;102169.16;;;14.63;100.00
29909;BME280;36247;51.952;6.146;2022-07-15T04:40:28;102173.69;;;14.68;100.00
29909;BME280;36247;51.952;6.146;2022-07-15T04:42:53;102170.81;;;14.60;100.00
29909;BME280;36247;51.952;6.146;2022-07-15T04:45:19;102175.91;;;14.46;100.00
29909;BME280;36247;51.952;6.146;2022-07-15T04:47:44;102177.75;;;14.50;100.00
29909;BME280;36247;51.952;6.146;2022-07-15T04:50:16;102179.50;;;14.48;100.00
29909;BME280;36247;51.952;6.146;2022-07-15T04:53:00;102185.72;;;14.47;100.00
29909;BME280;36247;51.952;6.146;2022-07-15T04:55:26;102180.44;;;14.50;100.00
29909;BME280;36247;51.952;6.146;2022-07-15T04:58:00;102184.50;;;14.31;100.00
29909;BME280;36247;51.952;6.146;2022-07-15T05:00:26;102184.66;;;14.39;100.00
29909;BME280;36247;51.952;6.146;2022-07-15T05:02:52;102190.25;;;14.53;100.00
29909;BME280;36247;51.952;6.146;2022-07-15T05:05:18;102182.19;;;14.48;100.00
29909;BME280;36247;51.952;6.146;2022-07-15T05:07:44;102192.94;;;14.53;100.00
29909;BME280;36247;51.952;6.146;2022-07-15T05:10:11;102195.47;;;14.46;100.00
29909;BME280;36247;51.952;6.146;2022-07-15T05:12:41;102190.91;;;14.39;100.00
29909;BME280;36247;51.952;6.146;2022-07-15T05:15:07;102191.88;;;14.44;100.00
29909;BME280;36247;51.952;6.146;2022-07-15T05:17:36;102194.25;;;14.75;100.00
29909;BME280;36247;51.952;6.146;2022-07-15T05:20:02;102196.78;;;14.69;100.00
29909;BME280;36247;51.952;6.146;2022-07-15T05:22:28;102193.78;;;14.52;100.00
29909;BME280;36247;51.952;6.146;2022-07-15T05:24:54;102194.31;;;14.78;100.00
29909;BME280;36247;51.952;6.146;2022-07-15T05:27:19;102196.78;;;14.67;100.00
29909;BME280;36247;51.952;6.146;2022-07-15T05:29:47;102196.97;;;14.76;100.00
29909;BME280;36247;51.952;6.146;2022-07-15T05:32:13;102196.13;;;14.80;100.00
29909;BME280;36247;51.952;6.146;2022-07-15T05:34:38;102182.41;;;15.09;100.00
29909;BME280;36247;51.952;6.146;2022-07-15T05:37:06;102198.19;;;14.97;100.00
29909;BME280;36247;51.952;6.146;2022-07-15T05:39:34;102200.03;;;14.99;100.00
29909;BME280;36247;51.952;6.146;2022-07-15T05:41:59;102199.88;;;14.90;100.00
29909;BME280;36247;51.952;6.146;2022-07-15T05:44:27;102194.75;;;15.04;100.00
29909;BME280;36247;51.952;6.146;2022-07-15T05:46:53;102205.19;;;14.89;100.00
29909;BME280;36247;51.952;6.146;2022-07-15T05:49:21;102205.53;;;15.10;100.00
29909;BME280;36247;51.952;6.146;2022-07-15T05:51:46;102198.66;;;15.23;100.00
29909;BME280;36247;51.952;6.146;2022-07-15T05:54:12;102199.31;;;15.10;100.00
29909;BME280;36247;51.952;6.146;2022-07-15T05:56:42;102201.38;;;15.26;100.00
29909;BME280;36247;51.952;6.146;2022-07-15T05:59:11;102201.28;;;15.20;100.00
29909;BME280;36247;51.952;6.146;2022-07-15T06:01:36;102195.13;;;15.26;99.95
29909;BME280;36247;51.952;6.146;2022-07-15T06:04:02;102197.66;;;15.18;100.00
29909;BME280;36247;51.952;6.146;2022-07-15T06:06:28;102188.13;;;15.34;99.82
29909;BME280;36247;51.952;6.146;2022-07-15T06:08:53;102187.44;;;15.46;99.87
29909;BME280;36247;51.952;6.146;2022-07-15T06:11:18;102202.38;;;15.34;99.28
29909;BME280;36247;51.952;6.146;2022-07-15T06:13:45;102192.03;;;15.56;98.76
29909;BME280;36247;51.952;6.146;2022-07-15T06:16:10;102189.81;;;15.85;97.91
29909;BME280;36247;51.952;6.146;2022-07-15T06:18:36;102181.00;;;15.94;97.54
29909;BME280;36247;51.952;6.146;2022-07-15T06:21:02;102180.88;;;15.85;96.64
29909;BME280;36247;51.952;6.146;2022-07-15T06:23:28;102187.44;;;16.09;97.44
29909;BME280;36247;51.952;6.146;2022-07-15T06:25:54;102187.34;;;16.01;97.28
29909;BME280;36247;51.952;6.146;2022-07-15T06:28:21;102191.31;;;16.35;95.35
29909;BME280;36247;51.952;6.146;2022-07-15T06:30:46;102195.06;;;16.50;96.07
29909;BME280;36247;51.952;6.146;2022-07-15T06:33:12;102188.78;;;16.49;95.02
29909;BME280;36247;51.952;6.146;2022-07-15T06:35:37;102189.72;;;16.51;93.89
29909;BME280;36247;51.952;6.146;2022-07-15T06:38:03;102194.78;;;16.28;94.33
29909;BME280;36247;51.952;6.146;2022-07-15T06:40:29;102179.81;;;16.44;93.81
29909;BME280;36247;51.952;6.146;2022-07-15T06:42:54;102188.00;;;16.60;93.52
29909;BME280;36247;51.952;6.146;2022-07-15T06:45:25;102192.88;;;16.96;93.20
29909;BME280;36247;51.952;6.146;2022-07-15T06:47:51;102192.94;;;17.05;90.52
29909;BME280;36247;51.952;6.146;2022-07-15T06:50:18;102191.28;;;17.20;90.20
29909;BME280;36247;51.952;6.146;2022-07-15T06:52:48;102186.88;;;17.30;89.29
29909;BME280;36247;51.952;6.146;2022-07-15T06:55:13;102186.00;;;17.29;89.46
29909;BME280;36247;51.952;6.146;2022-07-15T06:57:40;102190.41;;;17.24;89.06
29909;BME280;36247;51.952;6.146;2022-07-15T07:00:06;102181.53;;;17.31;91.00
29909;BME280;36247;51.952;6.146;2022-07-15T07:02:37;102192.28;;;17.37;88.21
29909;BME280;36247;51.952;6.146;2022-07-15T07:05:04;102188.63;;;17.21;88.69
29909;BME280;36247;51.952;6.146;2022-07-15T07:07:29;102188.47;;;17.07;86.69
29909;BME280;36247;51.952;6.146;2022-07-15T07:09:55;102181.50;;;17.28;85.39
29909;BME280;36247;51.952;6.146;2022-07-15T07:12:23;102187.13;;;17.67;82.38
29909;BME280;36247;51.952;6.146;2022-07-15T07:14:49;102184.53;;;17.87;78.41
29909;BME280;36247;51.952;6.146;2022-07-15T07:17:14;102189.97;;;17.90;75.40
29909;BME280;36247;51.952;6.146;2022-07-15T07:19:40;102189.06;;;17.91;78.06
29909;BME280;36247;51.952;6.146;2022-07-15T07:22:05;102188.25;;;18.06;76.96
29909;BME280;36247;51.952;6.146;2022-07-15T07:24:30;102190.06;;;18.05;75.73
29909;BME280;36247;51.952;6.146;2022-07-15T07:26:56;102190.94;;;18.09;74.79
29909;BME280;36247;51.952;6.146;2022-07-15T07:29:22;102184.75;;;18.27;75.18
29909;BME280;36247;51.952;6.146;2022-07-15T07:31:52;102199.91;;;18.08;72.29
29909;BME280;36247;51.952;6.146;2022-07-15T07:34:18;102185.66;;;18.27;74.06
29909;BME280;36247;51.952;6.146;2022-07-15T07:36:45;102191.06;;;18.33;73.41
29909;BME280;36247;51.952;6.146;2022-07-15T07:39:11;102188.38;;;18.41;71.71
29909;BME280;36247;51.952;6.146;2022-07-15T07:41:37;102194.69;;;18.57;72.31
29909;BME280;36247;51.952;6.146;2022-07-15T07:44:02;102193.75;;;18.50;71.59
29909;BME280;36247;51.952;6.146;2022-07-15T07:46:27;102196.44;;;18.41;70.27
29909;BME280;36247;51.952;6.146;2022-07-15T07:48:53;102203.66;;;18.76;69.67
29909;BME280;36247;51.952;6.146;2022-07-15T07:51:18;102193.84;;;18.81;67.65
29909;BME280;36247;51.952;6.146;2022-07-15T07:53:44;102198.34;;;18.90;68.16
29909;BME280;36247;51.952;6.146;2022-07-15T07:56:11;102198.34;;;18.92;67.67
29909;BME280;36247;51.952;6.146;2022-07-15T07:58:38;102194.78;;;19.16;68.28
29909;BME280;36247;51.952;6.146;2022-07-15T08:01:03;102193.88;;;19.29;67.33
29909;BME280;36247;51.952;6.146;2022-07-15T08:03:28;102198.34;;;19.41;66.56
29909;BME280;36247;51.952;6.146;2022-07-15T08:05:54;102200.13;;;19.36;67.30
29909;BME280;36247;51.952;6.146;2022-07-15T08:08:21;102189.38;;;19.50;65.00
29909;BME280;36247;51.952;6.146;2022-07-15T08:10:50;102191.16;;;19.60;63.75
29909;BME280;36247;51.952;6.146;2022-07-15T08:13:17;102192.03;;;19.42;59.82
29909;BME280;36247;51.952;6.146;2022-07-15T08:15:44;102195.59;;;19.60;58.58
29909;BME280;36247;51.952;6.146;2022-07-15T08:18:09;102194.66;;;19.95;57.85
29909;BME280;36247;51.952;6.146;2022-07-15T08:20:35;102187.56;;;19.78;56.51
29909;BME280;36247;51.952;6.146;2022-07-15T08:23:01;102200.06;;;19.90;59.19
29909;BME280;36247;51.952;6.146;2022-07-15T08:25:29;102203.59;;;20.00;56.80
29909;BME280;36247;51.952;6.146;2022-07-15T08:27:56;102199.13;;;19.96;55.42
29909;BME280;36247;51.952;6.146;2022-07-15T08:30:23;102202.59;;;20.24;55.42
29909;BME280;36247;51.952;6.146;2022-07-15T08:32:48;102203.44;;;20.35;56.56
29909;BME280;36247;51.952;6.146;2022-07-15T08:35:14;102198.78;;;20.73;53.28
29909;BME280;36247;51.952;6.146;2022-07-15T08:37:40;102200.78;;;20.32;53.45
29909;BME280;36247;51.952;6.146;2022-07-15T08:40:06;102199.78;;;20.52;53.93
29909;BME280;36247;51.952;6.146;2022-07-15T08:42:34;102204.88;;;20.98;51.52
29909;BME280;36247;51.952;6.146;2022-07-15T08:45:00;102200.84;;;20.20;49.79
29909;BME280;36247;51.952;6.146;2022-07-15T08:47:25;102203.00;;;21.06;48.08
29909;BME280;36247;51.952;6.146;2022-07-15T08:49:56;102203.72;;;21.27;47.22
29909;BME280;36247;51.952;6.146;2022-07-15T08:52:24;102199.00;;;21.54;46.96
29909;BME280;36247;51.952;6.146;2022-07-15T08:54:50;102199.72;;;21.73;46.04
29909;BME280;36247;51.952;6.146;2022-07-15T08:57:17;102198.22;;;22.23;47.79
29909;BME280;36247;51.952;6.146;2022-07-15T08:59:42;102196.84;;;21.87;49.34
29909;BME280;36247;51.952;6.146;2022-07-15T09:02:15;102200.06;;;22.18;46.64
29909;BME280;36247;51.952;6.146;2022-07-15T09:07:51;102193.13;;;21.97;47.58
29909;BME280;36247;51.952;6.146;2022-07-15T09:10:25;102187.94;;;22.53;46.21
29909;BME280;36247;51.952;6.146;2022-07-15T09:12:52;102191.31;;;21.97;44.78
29909;BME280;36247;51.952;6.146;2022-07-15T09:15:48;102192.56;;;21.67;45.49
29909;BME280;36247;51.952;6.146;2022-07-15T09:18:17;102188.97;;;22.43;44.38
29909;BME280;36247;51.952;6.146;2022-07-15T09:20:44;102182.72;;;21.64;46.11
29909;BME280;36247;51.952;6.146;2022-07-15T09:23:11;102186.25;;;21.71;42.85
29909;BME280;36247;51.952;6.146;2022-07-15T09:25:41;102181.78;;;22.42;44.00
29909;BME280;36247;51.952;6.146;2022-07-15T09:28:07;102169.31;;;22.92;41.06
29909;BME280;36247;51.952;6.146;2022-07-15T09:30:41;102173.78;;;23.46;44.42
29909;BME280;36247;51.952;6.146;2022-07-15T09:33:30;102171.09;;;23.46;42.49
29909;BME280;36247;51.952;6.146;2022-07-15T09:36:24;102170.53;;;24.19;41.66
29909;BME280;36247;51.952;6.146;2022-07-15T09:39:02;102164.47;;;22.55;40.41
29909;BME280;36247;51.952;6.146;2022-07-15T09:41:32;102182.41;;;21.02;44.96
29909;BME280;36247;51.952;6.146;2022-07-15T09:46:27;102184.03;;;21.22;47.81
29909;BME280;36247;51.952;6.146;2022-07-15T09:48:53;102185.56;;;21.47;47.22
29909;BME280;36247;51.952;6.146;2022-07-15T09:51:20;102187.41;;;21.44;46.96
29909;BME280;36247;51.952;6.146;2022-07-15T09:53:46;102195.91;;;20.99;47.11
29909;BME280;36247;51.952;6.146;2022-07-15T09:56:18;102203.97;;;20.99;48.41
29909;BME280;36247;51.952;6.146;2022-07-15T09:58:49;102199.50;;;20.95;46.82
29909;BME280;36247;51.952;6.146;2022-07-15T10:01:16;102202.53;;;20.41;47.00
29909;BME280;36247;51.952;6.146;2022-07-15T10:03:41;102201.50;;;20.60;48.85
29909;BME280;36247;51.952;6.146;2022-07-15T10:06:09;102213.25;;;20.50;49.98
29909;BME280;36247;51.952;6.146;2022-07-15T10:08:37;102201.38;;;20.84;48.90
29909;BME280;36247;51.952;6.146;2022-07-15T10:11:08;102207.63;;;20.90;47.67
29909;BME280;36247;51.952;6.146;2022-07-15T10:14:00;102200.66;;;20.52;49.36
29909;BME280;36247;51.952;6.146;2022-07-15T10:16:33;102204.75;;;21.12;51.97
29909;BME280;36247;51.952;6.146;2022-07-15T10:19:10;102196.72;;;21.06;47.37
29909;BME280;36247;51.952;6.146;2022-07-15T10:22:08;102187.66;;;23.74;43.90
29909;BME280;36247;51.952;6.146;2022-07-15T10:24:48;102187.31;;;22.29;44.50
29909;BME280;36247;51.952;6.146;2022-07-15T10:27:58;102191.16;;;22.11;49.12
29909;BME280;36247;51.952;6.146;2022-07-15T10:30:26;102181.91;;;22.31;48.77
29909;BME280;36247;51.952;6.146;2022-07-15T10:33:21;102177.25;;;21.72;46.54
29909;BME280;36247;51.952;6.146;2022-07-15T10:35:51;102167.63;;;22.21;47.72
29909;BME280;36247;51.952;6.146;2022-07-15T10:38:30;102179.63;;;21.97;47.60
29909;BME280;36247;51.952;6.146;2022-07-15T10:48:46;102153.09;;;24.33;42.74
29909;BME280;36247;51.952;6.146;2022-07-15T10:51:12;102147.06;;;22.14;47.96
29909;BME280;36247;51.952;6.146;2022-07-15T10:53:57;102161.06;;;22.44;46.00
29909;BME280;36247;51.952;6.146;2022-07-15T10:56:27;102156.78;;;21.54;48.65
29909;BME280;36247;51.952;6.146;2022-07-15T10:59:15;102156.88;;;21.39;50.31
29909;BME280;36247;51.952;6.146;2022-07-15T11:01:46;102157.59;;;20.49;51.67
29909;BME280;36247;51.952;6.146;2022-07-15T11:04:23;102155.66;;;20.76;50.42
29909;BME280;36247;51.952;6.146;2022-07-15T11:09:46;102147.06;;;22.11;47.98
29909;BME280;36247;51.952;6.146;2022-07-15T11:12:23;102137.09;;;23.76;42.62
29909;BME280;36247;51.952;6.146;2022-07-15T11:14:55;102136.19;;;24.98;40.17
29909;BME280;36247;51.952;6.146;2022-07-15T11:17:37;102134.13;;;24.72;39.46
29909;BME280;36247;51.952;6.146;2022-07-15T11:20:07;102144.81;;;22.47;42.95
29909;BME280;36247;51.952;6.146;2022-07-15T11:22:36;102139.69;;;22.25;45.03
29909;BME280;36247;51.952;6.146;2022-07-15T11:25:03;102125.50;;;23.26;43.53
29909;BME280;36247;51.952;6.146;2022-07-15T11:27:32;102124.94;;;24.01;42.82
29909;BME280;36247;51.952;6.146;2022-07-15T11:30:00;102132.06;;;22.55;44.73
29909;BME280;36247;51.952;6.146;2022-07-15T11:32:31;102135.59;;;21.96;48.00
29909;BME280;36247;51.952;6.146;2022-07-15T11:34:59;102135.06;;;21.66;49.84
29909;BME280;36247;51.952;6.146;2022-07-15T11:37:26;102143.28;;;21.56;50.29
29909;BME280;36247;51.952;6.146;2022-07-15T11:40:23;102147.38;;;21.01;48.83
29909;BME280;36247;51.952;6.146;2022-07-15T11:43:12;102139.13;;;21.19;48.03
29909;BME280;36247;51.952;6.146;2022-07-15T11:45:57;102116.69;;;25.51;40.68
29909;BME280;36247;51.952;6.146;2022-07-15T11:48:24;102124.53;;;24.93;37.72
29909;BME280;36247;51.952;6.146;2022-07-15T11:50:54;102117.84;;;23.50;40.72
29909;BME280;36247;51.952;6.146;2022-07-15T11:53:20;102113.69;;;22.18;44.58
29909;BME280;36247;51.952;6.146;2022-07-15T11:55:57;102114.72;;;21.31;45.65
29909;BME280;36247;51.952;6.146;2022-07-15T11:58:41;102110.81;;;21.65;45.63
29909;BME280;36247;51.952;6.146;2022-07-15T12:01:09;102113.31;;;21.80;46.88
29909;BME280;36247;51.952;6.146;2022-07-15T12:03:41;102110.09;;;22.19;45.98
29909;BME280;36247;51.952;6.146;2022-07-15T12:08:36;102105.56;;;23.77;41.15
29909;BME280;36247;51.952;6.146;2022-07-15T12:11:02;102109.69;;;23.01;44.65
29909;BME280;36247;51.952;6.146;2022-07-15T12:13:41;102113.19;;;24.78;42.15
29909;BME280;36247;51.952;6.146;2022-07-15T12:16:07;102101.53;;;25.75;39.98
29909;BME280;36247;51.952;6.146;2022-07-15T12:18:33;102121.09;;;24.50;39.20
29909;BME280;36247;51.952;6.146;2022-07-15T12:20:58;102111.03;;;23.74;41.27
29909;BME280;36247;51.952;6.146;2022-07-15T12:23:24;102106.41;;;23.79;42.62
29909;BME280;36247;51.952;6.146;2022-07-15T12:26:06;102104.56;;;23.36;41.32
29909;BME280;36247;51.952;6.146;2022-07-15T12:28:32;102103.72;;;23.34;42.68
29909;BME280;36247;51.952;6.146;2022-07-15T12:30:58;102102.41;;;22.52;44.22
29909;BME280;36247;51.952;6.146;2022-07-15T12:33:25;102109.31;;;23.70;41.89
29909;BME280;36247;51.952;6.146;2022-07-15T12:36:17;102114.22;;;22.45;44.67
29909;BME280;36247;51.952;6.146;2022-07-15T12:38:44;102102.59;;;23.46;40.82
29909;BME280;36247;51.952;6.146;2022-07-15T12:41:23;102097.38;;;22.85;43.04
29909;BME280;36247;51.952;6.146;2022-07-15T12:43:55;102100.41;;;22.66;46.38
29909;BME280;36247;51.952;6.146;2022-07-15T12:46:53;102096.84;;;23.16;43.03
29909;BME280;36247;51.952;6.146;2022-07-15T12:49:49;102095.91;;;22.65;42.96
29909;BME280;36247;51.952;6.146;2022-07-15T12:52:32;102104.00;;;24.46;41.64
29909;BME280;36247;51.952;6.146;2022-07-15T12:55:10;102105.81;;;23.18;41.45
29909;BME280;36247;51.952;6.146;2022-07-15T12:57:37;102101.56;;;23.97;40.12
29909;BME280;36247;51.952;6.146;2022-07-15T13:00:16;102104.41;;;23.44;41.66
29909;BME280;36247;51.952;6.146;2022-07-15T13:05:48;102105.50;;;22.83;43.90
29909;BME280;36247;51.952;6.146;2022-07-15T13:08:20;102101.63;;;21.80;45.23
29909;BME280;36247;51.952;6.146;2022-07-15T13:10:53;102108.56;;;21.99;45.36
29909;BME280;36247;51.952;6.146;2022-07-15T13:13:23;102106.28;;;21.65;45.75
29909;BME280;36247;51.952;6.146;2022-07-15T13:15:49;102110.53;;;21.85;46.51